createdAt,value
2022-09-25T00:01:59.766Z,98590.81
2022-09-25T00:15:12.652Z,98604.25
2022-09-25T00:20:37.202Z,98609.63
2022-09-25T00:26:00.486Z,98601.13
2022-09-25T00:31:25.022Z,98600.31
2022-09-25T00:36:47.259Z,98604.88
2022-09-25T00:42:14.100Z,98616.13
2022-09-25T00:48:07.079Z,98606.59
2022-09-25T00:53:35.080Z,98612.97
2022-09-25T00:58:57.081Z,98633.50
2022-09-25T01:04:21.306Z,98633.84
2022-09-25T01:09:43.759Z,98611.50
2022-09-25T01:15:12.119Z,98633.97
2022-09-25T01:20:40.084Z,98640.63
2022-09-25T01:26:07.637Z,98652.78
2022-09-25T01:31:53.060Z,98662.56
2022-09-25T01:37:33.339Z,98650.06
2022-09-25T01:43:01.884Z,98663.78
2022-09-25T01:48:34.359Z,98647.28
2022-09-25T01:54:02.820Z,98657.91
2022-09-25T01:59:46.417Z,98680.19
2022-09-25T02:05:22.877Z,98668.16
2022-09-25T02:10:49.677Z,98680.34
2022-09-25T02:16:18.556Z,98675.13
2022-09-25T02:21:51.000Z,98670.06
2022-09-25T02:27:12.681Z,98685.88
2022-09-25T02:32:35.020Z,98678.59
2022-09-25T02:37:58.739Z,98608.59
2022-09-25T02:43:32.899Z,98689.19
2022-09-25T02:49:27.113Z,98692.22
2022-09-25T02:55:21.619Z,98687.78
2022-09-25T03:00:48.529Z,98700.25
2022-09-25T03:06:11.412Z,98704.22
2022-09-25T03:11:41.367Z,98699.94
2022-09-25T03:17:05.337Z,98709.91
2022-09-25T03:22:27.375Z,98702.59
2022-09-25T03:27:49.750Z,98712.47
2022-09-25T03:33:12.817Z,98692.81
2022-09-25T03:38:34.963Z,98718.97
2022-09-25T03:43:57.887Z,98699.66
2022-09-25T03:49:20.191Z,98725.13
2022-09-25T03:54:42.009Z,98708.97
2022-09-25T04:00:05.280Z,98722.59
2022-09-25T04:05:35.668Z,98707.25
2022-09-25T04:11:00.145Z,98717.72
2022-09-25T04:16:22.466Z,98709.97
2022-09-25T04:21:44.347Z,98715.53
2022-09-25T04:27:06.127Z,98722.44
2022-09-25T04:32:45.939Z,98716.59
2022-09-25T04:38:08.266Z,98727.69
2022-09-25T04:43:31.808Z,98719.75
2022-09-25T04:48:53.799Z,98731.81
2022-09-25T04:54:16.857Z,98731.19
2022-09-25T04:59:38.787Z,98733.59
2022-09-25T05:05:00.617Z,98734.84
2022-09-25T05:10:24.302Z,98732.44
2022-09-25T05:15:46.002Z,98738.63
2022-09-25T05:21:08.445Z,98752.53
2022-09-25T05:26:30.697Z,98759.50
2022-09-25T05:31:53.822Z,98752.84
2022-09-25T05:37:16.429Z,98779.41
2022-09-25T05:42:46.769Z,98768.09
2022-09-25T05:48:11.488Z,98760.28
2022-09-25T05:53:35.996Z,98735.00
2022-09-25T05:58:59.187Z,98725.06
2022-09-25T06:04:24.315Z,98763.16
2022-09-25T06:09:46.977Z,98759.97
2022-09-25T06:15:11.658Z,98735.25
2022-09-25T06:20:33.518Z,98766.91
2022-09-25T06:26:07.729Z,98794.81
2022-09-25T06:31:29.935Z,98817.16
2022-09-25T06:36:52.117Z,98817.88
2022-09-25T06:42:14.305Z,98834.22
2022-09-25T06:47:36.297Z,98840.28
2022-09-25T06:53:01.683Z,98845.66
2022-09-25T06:58:25.907Z,98843.25
2022-09-25T07:03:49.611Z,98838.81
2022-09-25T07:09:11.418Z,98875.38
2022-09-25T07:14:34.305Z,98891.19
2022-09-25T07:19:56.478Z,98887.69
2022-09-25T07:25:18.287Z,98863.09
2022-09-25T07:30:40.219Z,98856.56
2022-09-25T07:36:01.967Z,98904.09
2022-09-25T07:41:24.675Z,98868.53
2022-09-25T07:46:54.268Z,98876.47
2022-09-25T07:52:19.659Z,98848.91
2022-09-25T07:57:44.395Z,98857.06
2022-09-25T08:03:06.612Z,98884.84
2022-09-25T08:08:34.189Z,98890.13
2022-09-25T08:14:01.919Z,98858.59
2022-09-25T08:19:25.389Z,98872.88
2022-09-25T08:24:49.317Z,98906.22
2022-09-25T08:31:50.099Z,98881.34
2022-09-25T08:36:18.576Z,98859.84
2022-09-25T08:42:02.489Z,98921.03
2022-09-25T08:47:45.371Z,98928.03
2022-09-25T08:53:24.215Z,98879.50
2022-09-25T08:58:54.377Z,98928.81
2022-09-25T09:04:19.841Z,98929.94
2022-09-25T09:09:48.627Z,98920.44
2022-09-25T09:15:39.943Z,98919.03
2022-09-25T09:21:28.380Z,98933.78
2022-09-25T09:26:56.139Z,98924.13
2022-09-25T09:32:27.437Z,98926.81
2022-09-25T09:44:37.609Z,98916.97
2022-09-25T09:50:29.551Z,98917.13
2022-09-25T09:56:00.170Z,98914.28
2022-09-25T10:01:41.414Z,98906.34
2022-09-25T10:07:11.437Z,98910.19
2022-09-25T10:12:37.547Z,98910.94
2022-09-25T10:18:07.451Z,98911.75
2022-09-25T10:23:42.180Z,98903.66
2022-09-25T10:29:24.049Z,98845.78
2022-09-25T10:34:54.002Z,98895.72
2022-09-25T10:40:34.536Z,98905.41
2022-09-25T10:46:13.428Z,98901.59
2022-09-25T10:51:35.679Z,98905.19
2022-09-25T10:56:58.257Z,98862.88
2022-09-25T11:02:38.574Z,98883.69
2022-09-25T11:08:04.830Z,98887.97
2022-09-25T11:13:37.450Z,98896.81
2022-09-25T11:19:13.387Z,98901.22
2022-09-25T11:24:47.508Z,98893.50
2022-09-25T11:30:33.621Z,98899.16
2022-09-25T11:36:07.967Z,98902.28
2022-09-25T11:41:36.448Z,98863.84
2022-09-25T11:47:10.996Z,98882.44
2022-09-25T11:53:06.230Z,98899.38
2022-09-25T11:58:58.448Z,98908.19
2022-09-25T12:04:41.649Z,98910.09
2022-09-25T12:10:20.888Z,98904.06
2022-09-25T12:15:46.050Z,98902.09
2022-09-25T12:21:20.207Z,98897.69
2022-09-25T12:27:14.947Z,98853.53
2022-09-25T12:33:14.969Z,98847.72
2022-09-25T12:38:44.648Z,98924.44
2022-09-25T12:44:27.136Z,98927.44
2022-09-25T12:50:04.371Z,98915.53
2022-09-25T12:55:55.647Z,98904.31
2022-09-25T13:01:41.281Z,98919.25
2022-09-25T13:07:15.209Z,98906.47
2022-09-25T13:12:38.319Z,98903.75
2022-09-25T13:18:00.839Z,98892.09
2022-09-25T13:23:34.290Z,98908.94
2022-09-25T13:29:15.537Z,98905.13
2022-09-25T13:34:42.762Z,98906.34
2022-09-25T13:40:43.867Z,98914.25
2022-09-25T13:46:36.458Z,98861.28
2022-09-25T13:52:19.618Z,98893.72
2022-09-25T13:58:00.497Z,98917.88
2022-09-25T14:03:44.589Z,98890.38
2022-09-25T14:09:22.775Z,98873.94
2022-09-25T14:15:20.724Z,98890.56
2022-09-25T14:20:49.459Z,98916.59
2022-09-25T14:26:29.466Z,98904.66
2022-09-25T14:32:42.817Z,98942.34
2022-09-25T14:38:26.039Z,98946.84
2022-09-25T14:44:09.135Z,98890.25
2022-09-25T14:49:39.861Z,98861.34
2022-09-25T14:55:07.622Z,98862.78
2022-09-25T15:06:25.856Z,98884.31
2022-09-25T15:11:56.396Z,98852.56
2022-09-25T15:17:24.916Z,98864.25
2022-09-25T15:23:06.607Z,98885.78
2022-09-25T15:28:31.988Z,98892.13
2022-09-25T15:34:13.353Z,98847.50
2022-09-25T15:39:42.258Z,98941.38
2022-09-25T15:45:31.651Z,98942.28
2022-09-25T15:50:54.907Z,98941.00
2022-09-25T15:56:24.849Z,98943.03
2022-09-25T16:02:05.111Z,98937.28
2022-09-25T16:07:34.866Z,98945.94
2022-09-25T16:12:56.830Z,98949.63
2022-09-25T16:18:25.008Z,98944.97
2022-09-25T16:23:57.319Z,98939.50
2022-09-25T16:29:23.858Z,98938.84
2022-09-25T16:34:59.454Z,98927.84
2022-09-25T16:40:25.454Z,98941.22
2022-09-25T16:46:15.805Z,98950.31
2022-09-25T16:51:46.899Z,98957.47
2022-09-25T16:57:10.998Z,98907.53
2022-09-25T17:02:42.425Z,98930.88
2022-09-25T17:08:31.876Z,98941.38
2022-09-25T17:13:54.176Z,98906.34
2022-09-25T17:19:19.725Z,98854.22
2022-09-25T17:24:42.150Z,98890.50
2022-09-25T17:30:07.651Z,98870.13
2022-09-25T17:35:34.267Z,98937.06
2022-09-25T17:41:05.453Z,98930.09
2022-09-25T17:46:27.625Z,98927.41
2022-09-25T17:51:50.624Z,98935.25
2022-09-25T17:57:12.447Z,98935.84
2022-09-25T18:02:35.205Z,98930.50
2022-09-25T18:07:56.888Z,98922.44
2022-09-25T18:13:22.347Z,98921.78
2022-09-25T18:19:04.116Z,98921.25
2022-09-25T18:24:26.307Z,98923.34
2022-09-25T18:29:47.987Z,98902.28
2022-09-25T18:35:10.847Z,98898.22
2022-09-25T18:40:33.169Z,98928.69
2022-09-25T18:45:57.221Z,98936.41
2022-09-25T18:51:19.857Z,98922.09
2022-09-25T18:56:42.418Z,98919.69
2022-09-25T19:02:04.617Z,98905.16
2022-09-25T19:07:28.740Z,98912.88
2022-09-25T19:12:51.614Z,98900.31
2022-09-25T19:18:14.078Z,98907.22
2022-09-25T19:23:36.058Z,98914.31
2022-09-25T19:28:58.278Z,98921.03
2022-09-25T19:34:20.072Z,98926.75
2022-09-25T19:40:00.598Z,98923.56
2022-09-25T19:45:22.847Z,98927.69
2022-09-25T19:50:44.787Z,98930.00
2022-09-25T19:56:07.616Z,98925.97
2022-09-25T20:01:30.815Z,98920.41
2022-09-25T20:06:52.758Z,98924.34
2022-09-25T20:12:14.596Z,98921.63
2022-09-25T20:17:36.469Z,98915.16
2022-09-25T20:22:59.449Z,98889.84
2022-09-25T20:28:56.313Z,98853.97
2022-09-25T20:40:21.982Z,98904.34
2022-09-25T20:45:44.167Z,98889.88
2022-09-25T20:51:09.469Z,98891.69
2022-09-25T20:56:33.248Z,98895.16
2022-09-25T21:01:55.193Z,98846.66
2022-09-25T21:07:21.149Z,98845.34
2022-09-25T21:12:43.676Z,98836.81
2022-09-25T21:18:05.847Z,98846.66
2022-09-25T21:23:28.816Z,98800.59
2022-09-25T21:28:53.087Z,98811.59
2022-09-25T21:34:19.516Z,98793.78
2022-09-25T21:39:41.971Z,98842.94
2022-09-25T21:45:06.928Z,98848.50
2022-09-25T21:50:29.158Z,98830.81
2022-09-25T21:56:07.307Z,98798.53
2022-09-25T22:01:33.610Z,98819.38
2022-09-25T22:07:00.658Z,98833.78
2022-09-25T22:12:23.018Z,98822.88
2022-09-25T22:17:44.879Z,98824.72
2022-09-25T22:23:12.239Z,98792.88
2022-09-25T22:28:38.348Z,98837.97
2022-09-25T22:34:04.030Z,98823.22
2022-09-25T22:39:26.388Z,98834.47
2022-09-25T22:44:48.412Z,98869.22
2022-09-25T22:50:10.758Z,98829.44
2022-09-25T22:55:34.298Z,98845.59
2022-09-25T23:00:57.205Z,98823.03
2022-09-25T23:06:19.548Z,98871.63
2022-09-25T23:11:42.389Z,98891.69
2022-09-25T23:17:04.665Z,98855.31
2022-09-25T23:22:27.002Z,98880.78
2022-09-25T23:27:49.387Z,98907.78
2022-09-25T23:33:12.137Z,98871.31
2022-09-25T23:38:34.823Z,98891.31
2022-09-25T23:43:51.627Z,98896.94
2022-09-25T23:49:14.489Z,98898.47
2022-09-25T23:54:37.317Z,98905.09
2022-09-25T23:59:59.135Z,98909.88
